sensor_id;sensor_type;location;lat;lon;timestamp;P1;durP1;ratioP1;P2;durP2;ratioP2
18146;SDS011;9199;48.832;9.182;2024-02-28T00:00:06;22.52;;;11.90;;
18146;SDS011;9199;48.832;9.182;2024-02-28T00:02:35;21.58;;;12.07;;
18146;SDS011;9199;48.832;9.182;2024-02-28T00:05:02;22.23;;;11.88;;
18146;SDS011;9199;48.832;9.182;2024-02-28T00:07:30;21.98;;;11.60;;
18146;SDS011;9199;48.832;9.182;2024-02-28T00:09:57;24.30;;;12.87;;
18146;SDS011;9199;48.832;9.182;2024-02-28T00:12:24;20.73;;;12.40;;
18146;SDS011;9199;48.832;9.182;2024-02-28T00:14:51;22.08;;;11.90;;
18146;SDS011;9199;48.832;9.182;2024-02-28T00:17:18;23.05;;;12.80;;
18146;SDS011;9199;48.832;9.182;2024-02-28T00:19:44;23.38;;;12.30;;
18146;SDS011;9199;48.832;9.182;2024-02-28T00:22:11;24.73;;;12.43;;
18146;SDS011;9199;48.832;9.182;2024-02-28T00:24:39;22.98;;;12.38;;
18146;SDS011;9199;48.832;9.182;2024-02-28T00:27:06;23.80;;;13.50;;
18146;SDS011;9199;48.832;9.182;2024-02-28T00:29:33;21.63;;;12.35;;
18146;SDS011;9199;48.832;9.182;2024-02-28T00:32:00;22.13;;;11.93;;
18146;SDS011;9199;48.832;9.182;2024-02-28T00:34:27;21.60;;;11.93;;
18146;SDS011;9199;48.832;9.182;2024-02-28T00:36:53;21.00;;;11.55;;
18146;SDS011;9199;48.832;9.182;2024-02-28T00:39:20;21.92;;;12.45;;
18146;SDS011;9199;48.832;9.182;2024-02-28T00:41:48;21.85;;;13.32;;
18146;SDS011;9199;48.832;9.182;2024-02-28T00:44:15;24.27;;;12.90;;
18146;SDS011;9199;48.832;9.182;2024-02-28T00:46:41;21.33;;;12.70;;
18146;SDS011;9199;48.832;9.182;2024-02-28T00:49:08;24.55;;;13.27;;
18146;SDS011;9199;48.832;9.182;2024-02-28T00:51:35;22.77;;;12.63;;
18146;SDS011;9199;48.832;9.182;2024-02-28T00:54:02;27.83;;;14.80;;
18146;SDS011;9199;48.832;9.182;2024-02-28T00:56:29;24.80;;;13.60;;
18146;SDS011;9199;48.832;9.182;2024-02-28T00:58:58;24.70;;;13.17;;
18146;SDS011;9199;48.832;9.182;2024-02-28T01:01:25;23.08;;;12.50;;
18146;SDS011;9199;48.832;9.182;2024-02-28T01:03:51;24.65;;;13.60;;
18146;SDS011;9199;48.832;9.182;2024-02-28T01:06:18;25.10;;;13.48;;
18146;SDS011;9199;48.832;9.182;2024-02-28T01:08:45;25.20;;;13.18;;
18146;SDS011;9199;48.832;9.182;2024-02-28T01:11:11;24.17;;;13.17;;
18146;SDS011;9199;48.832;9.182;2024-02-28T01:13:38;24.10;;;13.07;;
18146;SDS011;9199;48.832;9.182;2024-02-28T01:16:06;25.48;;;13.40;;
18146;SDS011;9199;48.832;9.182;2024-02-28T01:18:33;24.98;;;13.38;;
18146;SDS011;9199;48.832;9.182;2024-02-28T01:20:59;26.65;;;13.48;;
18146;SDS011;9199;48.832;9.182;2024-02-28T01:23:26;26.20;;;13.43;;
18146;SDS011;9199;48.832;9.182;2024-02-28T01:25:53;26.42;;;13.98;;
18146;SDS011;9199;48.832;9.182;2024-02-28T01:28:19;24.08;;;14.05;;
18146;SDS011;9199;48.832;9.182;2024-02-28T01:30:46;27.20;;;14.65;;
18146;SDS011;9199;48.832;9.182;2024-02-28T01:33:15;24.75;;;13.38;;
18146;SDS011;9199;48.832;9.182;2024-02-28T01:35:42;24.60;;;13.77;;
18146;SDS011;9199;48.832;9.182;2024-02-28T01:38:08;24.75;;;13.77;;
18146;SDS011;9199;48.832;9.182;2024-02-28T01:40:35;24.77;;;13.60;;
18146;SDS011;9199;48.832;9.182;2024-02-28T01:43:02;24.85;;;13.68;;
18146;SDS011;9199;48.832;9.182;2024-02-28T01:45:30;27.58;;;13.20;;
18146;SDS011;9199;48.832;9.182;2024-02-28T01:47:56;25.37;;;14.10;;
18146;SDS011;9199;48.832;9.182;2024-02-28T01:50:24;28.55;;;13.52;;
18146;SDS011;9199;48.832;9.182;2024-02-28T01:52:51;26.55;;;14.13;;
18146;SDS011;9199;48.832;9.182;2024-02-28T01:55:18;26.08;;;14.15;;
18146;SDS011;9199;48.832;9.182;2024-02-28T01:57:45;26.00;;;13.98;;
18146;SDS011;9199;48.832;9.182;2024-02-28T02:00:12;26.23;;;13.60;;
18146;SDS011;9199;48.832;9.182;2024-02-28T02:02:41;25.40;;;13.63;;
18146;SDS011;9199;48.832;9.182;2024-02-28T02:05:08;25.77;;;14.45;;
18146;SDS011;9199;48.832;9.182;2024-02-28T02:07:36;29.20;;;14.10;;
18146;SDS011;9199;48.832;9.182;2024-02-28T02:10:04;25.10;;;13.05;;
18146;SDS011;9199;48.832;9.182;2024-02-28T02:12:34;24.30;;;13.33;;
18146;SDS011;9199;48.832;9.182;2024-02-28T02:15:00;24.80;;;13.60;;
18146;SDS011;9199;48.832;9.182;2024-02-28T02:17:27;25.17;;;12.57;;
18146;SDS011;9199;48.832;9.182;2024-02-28T02:19:54;24.20;;;12.98;;
18146;SDS011;9199;48.832;9.182;2024-02-28T02:22:20;22.55;;;12.63;;
18146;SDS011;9199;48.832;9.182;2024-02-28T02:24:50;22.73;;;12.77;;
18146;SDS011;9199;48.832;9.182;2024-02-28T02:27:17;23.98;;;12.55;;
18146;SDS011;9199;48.832;9.182;2024-02-28T02:29:43;24.23;;;13.23;;
18146;SDS011;9199;48.832;9.182;2024-02-28T02:32:10;24.98;;;13.45;;
18146;SDS011;9199;48.832;9.182;2024-02-28T02:34:37;23.73;;;12.05;;
18146;SDS011;9199;48.832;9.182;2024-02-28T02:37:03;21.43;;;11.83;;
18146;SDS011;9199;48.832;9.182;2024-02-28T02:39:33;22.63;;;13.00;;
18146;SDS011;9199;48.832;9.182;2024-02-28T02:42:01;23.77;;;12.85;;
18146;SDS011;9199;48.832;9.182;2024-02-28T02:44:28;24.85;;;12.82;;
18146;SDS011;9199;48.832;9.182;2024-02-28T02:46:55;24.20;;;12.32;;
18146;SDS011;9199;48.832;9.182;2024-02-28T02:49:22;22.13;;;13.00;;
18146;SDS011;9199;48.832;9.182;2024-02-28T02:51:48;22.75;;;12.75;;
18146;SDS011;9199;48.832;9.182;2024-02-28T02:54:15;24.60;;;12.93;;
18146;SDS011;9199;48.832;9.182;2024-02-28T02:56:42;25.48;;;13.45;;
18146;SDS011;9199;48.832;9.182;2024-02-28T02:59:10;26.30;;;13.30;;
18146;SDS011;9199;48.832;9.182;2024-02-28T03:01:37;23.07;;;12.43;;
18146;SDS011;9199;48.832;9.182;2024-02-28T03:04:03;25.05;;;13.30;;
18146;SDS011;9199;48.832;9.182;2024-02-28T03:06:30;23.40;;;12.88;;
18146;SDS011;9199;48.832;9.182;2024-02-28T03:08:58;27.30;;;13.27;;
18146;SDS011;9199;48.832;9.182;2024-02-28T03:11:24;23.23;;;12.80;;
18146;SDS011;9199;48.832;9.182;2024-02-28T03:13:51;24.33;;;13.07;;
18146;SDS011;9199;48.832;9.182;2024-02-28T03:16:19;25.88;;;12.82;;
18146;SDS011;9199;48.832;9.182;2024-02-28T03:18:46;25.33;;;13.10;;
18146;SDS011;9199;48.832;9.182;2024-02-28T03:21:13;23.75;;;12.80;;
18146;SDS011;9199;48.832;9.182;2024-02-28T03:23:39;25.13;;;13.23;;
18146;SDS011;9199;48.832;9.182;2024-02-28T03:26:06;25.67;;;13.17;;
18146;SDS011;9199;48.832;9.182;2024-02-28T03:28:33;24.40;;;12.38;;
18146;SDS011;9199;48.832;9.182;2024-02-28T03:30:59;23.88;;;13.18;;
18146;SDS011;9199;48.832;9.182;2024-02-28T03:33:28;27.60;;;13.43;;
18146;SDS011;9199;48.832;9.182;2024-02-28T03:35:57;24.63;;;12.82;;
18146;SDS011;9199;48.832;9.182;2024-02-28T03:38:23;24.40;;;13.13;;
18146;SDS011;9199;48.832;9.182;2024-02-28T03:40:50;21.70;;;12.10;;
18146;SDS011;9199;48.832;9.182;2024-02-28T03:43:17;23.77;;;12.55;;
18146;SDS011;9199;48.832;9.182;2024-02-28T03:45:43;24.08;;;12.93;;
18146;SDS011;9199;48.832;9.182;2024-02-28T03:48:10;24.33;;;12.82;;
18146;SDS011;9199;48.832;9.182;2024-02-28T03:50:38;25.03;;;12.37;;
18146;SDS011;9199;48.832;9.182;2024-02-28T03:53:05;24.05;;;12.77;;
18146;SDS011;9199;48.832;9.182;2024-02-28T03:55:32;24.60;;;13.13;;
18146;SDS011;9199;48.832;9.182;2024-02-28T03:57:58;24.55;;;12.73;;
18146;SDS011;9199;48.832;9.182;2024-02-28T04:00:25;27.23;;;13.32;;
18146;SDS011;9199;48.832;9.182;2024-02-28T04:02:52;23.43;;;11.87;;
18146;SDS011;9199;48.832;9.182;2024-02-28T04:05:18;26.90;;;13.48;;
18146;SDS011;9199;48.832;9.182;2024-02-28T04:07:46;22.92;;;12.45;;
18146;SDS011;9199;48.832;9.182;2024-02-28T04:10:13;24.00;;;12.52;;
18146;SDS011;9199;48.832;9.182;2024-02-28T04:12:42;25.25;;;12.95;;
18146;SDS011;9199;48.832;9.182;2024-02-28T04:15:09;23.27;;;13.07;;
18146;SDS011;9199;48.832;9.182;2024-02-28T04:17:36;26.00;;;12.82;;
18146;SDS011;9199;48.832;9.182;2024-02-28T04:20:03;23.77;;;12.95;;
18146;SDS011;9199;48.832;9.182;2024-02-28T04:22:33;25.90;;;12.55;;
18146;SDS011;9199;48.832;9.182;2024-02-28T04:25:01;23.58;;;12.68;;
18146;SDS011;9199;48.832;9.182;2024-02-28T04:27:29;25.07;;;12.50;;
18146;SDS011;9199;48.832;9.182;2024-02-28T04:29:55;26.23;;;13.20;;
18146;SDS011;9199;48.832;9.182;2024-02-28T04:32:22;23.02;;;12.75;;
18146;SDS011;9199;48.832;9.182;2024-02-28T04:34:49;24.92;;;12.95;;
18146;SDS011;9199;48.832;9.182;2024-02-28T04:37:15;23.60;;;13.15;;
18146;SDS011;9199;48.832;9.182;2024-02-28T04:39:42;25.93;;;12.83;;
18146;SDS011;9199;48.832;9.182;2024-02-28T04:42:10;22.65;;;12.85;;
18146;SDS011;9199;48.832;9.182;2024-02-28T04:44:37;24.13;;;13.45;;
18146;SDS011;9199;48.832;9.182;2024-02-28T04:47:04;22.13;;;13.10;;
18146;SDS011;9199;48.832;9.182;2024-02-28T04:49:31;25.05;;;13.40;;
18146;SDS011;9199;48.832;9.182;2024-02-28T04:51:57;23.53;;;12.60;;
18146;SDS011;9199;48.832;9.182;2024-02-28T04:54:24;23.80;;;13.10;;
18146;SDS011;9199;48.832;9.182;2024-02-28T04:56:51;24.23;;;13.32;;
18146;SDS011;9199;48.832;9.182;2024-02-28T04:59:19;24.15;;;12.80;;
18146;SDS011;9199;48.832;9.182;2024-02-28T05:01:45;26.92;;;13.68;;
18146;SDS011;9199;48.832;9.182;2024-02-28T05:04:13;24.47;;;12.90;;
18146;SDS011;9199;48.832;9.182;2024-02-28T05:06:40;23.40;;;13.70;;
18146;SDS011;9199;48.832;9.182;2024-02-28T05:09:06;24.40;;;12.70;;
18146;SDS011;9199;48.832;9.182;2024-02-28T05:11:33;24.65;;;13.45;;
18146;SDS011;9199;48.832;9.182;2024-02-28T05:14:00;26.13;;;13.65;;
18146;SDS011;9199;48.832;9.182;2024-02-28T05:16:28;27.40;;;13.63;;
18146;SDS011;9199;48.832;9.182;2024-02-28T05:18:55;25.05;;;13.93;;
18146;SDS011;9199;48.832;9.182;2024-02-28T05:21:22;26.05;;;14.13;;
18146;SDS011;9199;48.832;9.182;2024-02-28T05:23:48;25.55;;;13.35;;
18146;SDS011;9199;48.832;9.182;2024-02-28T05:26:15;23.85;;;13.32;;
18146;SDS011;9199;48.832;9.182;2024-02-28T05:28:42;24.47;;;13.77;;
18146;SDS011;9199;48.832;9.182;2024-02-28T05:31:19;25.33;;;13.80;;
18146;SDS011;9199;48.832;9.182;2024-02-28T05:33:48;25.85;;;14.15;;
18146;SDS011;9199;48.832;9.182;2024-02-28T05:36:16;26.23;;;13.88;;
18146;SDS011;9199;48.832;9.182;2024-02-28T05:38:43;24.05;;;13.15;;
18146;SDS011;9199;48.832;9.182;2024-02-28T05:41:10;24.37;;;13.33;;
18146;SDS011;9199;48.832;9.182;2024-02-28T05:43:36;25.65;;;13.57;;
18146;SDS011;9199;48.832;9.182;2024-02-28T05:46:04;25.05;;;13.38;;
18146;SDS011;9199;48.832;9.182;2024-02-28T05:48:30;25.33;;;13.10;;
18146;SDS011;9199;48.832;9.182;2024-02-28T05:51:00;22.17;;;12.95;;
18146;SDS011;9199;48.832;9.182;2024-02-28T05:53:27;24.40;;;13.57;;
18146;SDS011;9199;48.832;9.182;2024-02-28T05:55:57;24.67;;;14.25;;
18146;SDS011;9199;48.832;9.182;2024-02-28T05:58:24;21.48;;;13.77;;
18146;SDS011;9199;48.832;9.182;2024-02-28T06:00:51;26.17;;;13.57;;
18146;SDS011;9199;48.832;9.182;2024-02-28T06:03:18;22.98;;;13.50;;
18146;SDS011;9199;48.832;9.182;2024-02-28T06:05:45;22.17;;;12.67;;
18146;SDS011;9199;48.832;9.182;2024-02-28T06:08:13;25.70;;;12.98;;
18146;SDS011;9199;48.832;9.182;2024-02-28T06:10:40;21.70;;;13.00;;
18146;SDS011;9199;48.832;9.182;2024-02-28T06:13:08;20.85;;;11.95;;
18146;SDS011;9199;48.832;9.182;2024-02-28T06:15:35;22.73;;;12.18;;
18146;SDS011;9199;48.832;9.182;2024-02-28T06:18:02;24.20;;;12.83;;
18146;SDS011;9199;48.832;9.182;2024-02-28T06:20:28;21.77;;;12.38;;
18146;SDS011;9199;48.832;9.182;2024-02-28T06:22:56;21.58;;;11.95;;
18146;SDS011;9199;48.832;9.182;2024-02-28T06:25:24;25.17;;;13.20;;
18146;SDS011;9199;48.832;9.182;2024-02-28T06:27:52;21.17;;;13.15;;
18146;SDS011;9199;48.832;9.182;2024-02-28T06:30:19;20.33;;;12.73;;
18146;SDS011;9199;48.832;9.182;2024-02-28T06:32:46;21.35;;;12.75;;
18146;SDS011;9199;48.832;9.182;2024-02-28T06:35:13;21.30;;;13.13;;
18146;SDS011;9199;48.832;9.182;2024-02-28T06:37:41;23.50;;;14.07;;
18146;SDS011;9199;48.832;9.182;2024-02-28T06:40:09;23.02;;;13.55;;
18146;SDS011;9199;48.832;9.182;2024-02-28T06:42:37;22.27;;;13.57;;
18146;SDS011;9199;48.832;9.182;2024-02-28T06:45:05;25.45;;;14.15;;
18146;SDS011;9199;48.832;9.182;2024-02-28T06:47:33;24.83;;;14.25;;
18146;SDS011;9199;48.832;9.182;2024-02-28T06:50:01;26.50;;;14.30;;
18146;SDS011;9199;48.832;9.182;2024-02-28T06:52:29;26.95;;;14.35;;
18146;SDS011;9199;48.832;9.182;2024-02-28T06:54:56;29.13;;;15.63;;
18146;SDS011;9199;48.832;9.182;2024-02-28T06:57:23;24.42;;;14.38;;
18146;SDS011;9199;48.832;9.182;2024-02-28T06:59:51;25.92;;;14.27;;
18146;SDS011;9199;48.832;9.182;2024-02-28T07:02:17;25.05;;;14.05;;
18146;SDS011;9199;48.832;9.182;2024-02-28T07:04:44;29.33;;;14.90;;
18146;SDS011;9199;48.832;9.182;2024-02-28T07:07:11;24.07;;;14.50;;
18146;SDS011;9199;48.832;9.182;2024-02-28T07:09:37;26.50;;;14.85;;
18146;SDS011;9199;48.832;9.182;2024-02-28T07:12:05;29.58;;;15.40;;
18146;SDS011;9199;48.832;9.182;2024-02-28T07:14:32;26.52;;;15.10;;
18146;SDS011;9199;48.832;9.182;2024-02-28T07:17:00;25.10;;;13.98;;
18146;SDS011;9199;48.832;9.182;2024-02-28T07:19:27;25.20;;;14.33;;
18146;SDS011;9199;48.832;9.182;2024-02-28T07:21:54;25.33;;;13.93;;
18146;SDS011;9199;48.832;9.182;2024-02-28T07:24:20;26.08;;;13.57;;
18146;SDS011;9199;48.832;9.182;2024-02-28T07:26:47;30.30;;;14.57;;
18146;SDS011;9199;48.832;9.182;2024-02-28T07:29:15;26.15;;;14.60;;
18146;SDS011;9199;48.832;9.182;2024-02-28T07:31:44;30.13;;;14.53;;
18146;SDS011;9199;48.832;9.182;2024-02-28T07:34:12;27.05;;;14.73;;
18146;SDS011;9199;48.832;9.182;2024-02-28T07:36:39;31.55;;;15.60;;
18146;SDS011;9199;48.832;9.182;2024-02-28T07:39:06;26.20;;;15.05;;
18146;SDS011;9199;48.832;9.182;2024-02-28T07:41:37;25.83;;;14.10;;
18146;SDS011;9199;48.832;9.182;2024-02-28T07:44:04;27.03;;;14.57;;
18146;SDS011;9199;48.832;9.182;2024-02-28T07:46:32;28.75;;;15.40;;
18146;SDS011;9199;48.832;9.182;2024-02-28T07:48:58;25.92;;;15.10;;
18146;SDS011;9199;48.832;9.182;2024-02-28T07:51:27;32.78;;;15.32;;
18146;SDS011;9199;48.832;9.182;2024-02-28T07:53:54;26.23;;;15.43;;
18146;SDS011;9199;48.832;9.182;2024-02-28T07:56:21;31.00;;;15.63;;
18146;SDS011;9199;48.832;9.182;2024-02-28T07:58:48;28.92;;;15.98;;
18146;SDS011;9199;48.832;9.182;2024-02-28T08:01:14;28.42;;;14.60;;
18146;SDS011;9199;48.832;9.182;2024-02-28T08:03:41;28.02;;;15.82;;
18146;SDS011;9199;48.832;9.182;2024-02-28T08:06:08;26.98;;;14.70;;
18146;SDS011;9199;48.832;9.182;2024-02-28T08:08:37;29.33;;;15.23;;
18146;SDS011;9199;48.832;9.182;2024-02-28T08:11:04;28.10;;;15.30;;
18146;SDS011;9199;48.832;9.182;2024-02-28T08:13:31;29.77;;;15.20;;
18146;SDS011;9199;48.832;9.182;2024-02-28T08:15:58;28.27;;;15.23;;
18146;SDS011;9199;48.832;9.182;2024-02-28T08:18:25;26.30;;;15.27;;
18146;SDS011;9199;48.832;9.182;2024-02-28T08:20:53;30.13;;;16.00;;
18146;SDS011;9199;48.832;9.182;2024-02-28T08:23:22;30.58;;;15.63;;
18146;SDS011;9199;48.832;9.182;2024-02-28T08:25:50;28.88;;;15.15;;
18146;SDS011;9199;48.832;9.182;2024-02-28T08:28:17;26.73;;;14.65;;
18146;SDS011;9199;48.832;9.182;2024-02-28T08:30:43;26.70;;;15.07;;
18146;SDS011;9199;48.832;9.182;2024-02-28T08:33:10;27.10;;;15.07;;
18146;SDS011;9199;48.832;9.182;2024-02-28T08:35:37;28.38;;;14.80;;
18146;SDS011;9199;48.832;9.182;2024-02-28T08:38:04;29.52;;;14.93;;
18146;SDS011;9199;48.832;9.182;2024-02-28T08:40:30;27.25;;;15.10;;
18146;SDS011;9199;48.832;9.182;2024-02-28T08:42:58;28.90;;;16.05;;
18146;SDS011;9199;48.832;9.182;2024-02-28T08:45:25;27.77;;;14.97;;
18146;SDS011;9199;48.832;9.182;2024-02-28T08:47:52;26.42;;;14.20;;
18146;SDS011;9199;48.832;9.182;2024-02-28T08:50:19;29.38;;;15.50;;
18146;SDS011;9199;48.832;9.182;2024-02-28T08:52:45;26.48;;;14.10;;
18146;SDS011;9199;48.832;9.182;2024-02-28T08:55:12;27.00;;;14.68;;
18146;SDS011;9199;48.832;9.182;2024-02-28T08:57:38;26.43;;;14.40;;
18146;SDS011;9199;48.832;9.182;2024-02-28T09:00:07;26.67;;;14.30;;
18146;SDS011;9199;48.832;9.182;2024-02-28T09:02:35;27.23;;;14.25;;
18146;SDS011;9199;48.832;9.182;2024-02-28T09:05:02;26.67;;;14.50;;
18146;SDS011;9199;48.832;9.182;2024-02-28T09:07:29;27.75;;;14.93;;
18146;SDS011;9199;48.832;9.182;2024-02-28T09:09:56;26.33;;;14.47;;
18146;SDS011;9199;48.832;9.182;2024-02-28T09:12:22;27.88;;;14.73;;
18146;SDS011;9199;48.832;9.182;2024-02-28T09:14:49;27.35;;;14.88;;
18146;SDS011;9199;48.832;9.182;2024-02-28T09:17:23;26.05;;;14.77;;
18146;SDS011;9199;48.832;9.182;2024-02-28T09:19:49;28.00;;;15.07;;
18146;SDS011;9199;48.832;9.182;2024-02-28T09:22:16;26.87;;;14.23;;
18146;SDS011;9199;48.832;9.182;2024-02-28T09:24:43;28.13;;;15.05;;
18146;SDS011;9199;48.832;9.182;2024-02-28T09:27:09;23.80;;;13.70;;
18146;SDS011;9199;48.832;9.182;2024-02-28T09:29:36;26.60;;;13.23;;
18146;SDS011;9199;48.832;9.182;2024-02-28T09:32:03;24.23;;;13.10;;
18146;SDS011;9199;48.832;9.182;2024-02-28T09:34:31;25.05;;;13.43;;
18146;SDS011;9199;48.832;9.182;2024-02-28T09:36:58;25.13;;;13.77;;
18146;SDS011;9199;48.832;9.182;2024-02-28T09:39:25;25.60;;;13.43;;
18146;SDS011;9199;48.832;9.182;2024-02-28T09:41:51;26.60;;;13.63;;
18146;SDS011;9199;48.832;9.182;2024-02-28T09:44:19;22.98;;;12.63;;
18146;SDS011;9199;48.832;9.182;2024-02-28T09:46:48;23.88;;;13.15;;
18146;SDS011;9199;48.832;9.182;2024-02-28T09:49:17;21.75;;;11.30;;
18146;SDS011;9199;48.832;9.182;2024-02-28T09:51:47;17.00;;;9.60;;
18146;SDS011;9199;48.832;9.182;2024-02-28T09:54:16;18.33;;;10.17;;
18146;SDS011;9199;48.832;9.182;2024-02-28T09:56:43;21.15;;;10.57;;
18146;SDS011;9199;48.832;9.182;2024-02-28T09:59:10;21.27;;;11.23;;
18146;SDS011;9199;48.832;9.182;2024-02-28T10:01:41;21.98;;;11.07;;
18146;SDS011;9199;48.832;9.182;2024-02-28T10:04:09;18.13;;;10.40;;
18146;SDS011;9199;48.832;9.182;2024-02-28T10:06:38;15.73;;;9.00;;
18146;SDS011;9199;48.832;9.182;2024-02-28T10:09:06;17.48;;;9.68;;
18146;SDS011;9199;48.832;9.182;2024-02-28T10:11:35;16.48;;;9.60;;
18146;SDS011;9199;48.832;9.182;2024-02-28T10:14:03;18.67;;;10.27;;
18146;SDS011;9199;48.832;9.182;2024-02-28T10:16:29;19.00;;;10.88;;
18146;SDS011;9199;48.832;9.182;2024-02-28T10:18:56;20.97;;;11.53;;
18146;SDS011;9199;48.832;9.182;2024-02-28T10:21:23;22.08;;;11.77;;
18146;SDS011;9199;48.832;9.182;2024-02-28T10:23:51;21.58;;;11.73;;
18146;SDS011;9199;48.832;9.182;2024-02-28T10:26:19;21.90;;;11.93;;
18146;SDS011;9199;48.832;9.182;2024-02-28T10:28:45;20.48;;;11.73;;
18146;SDS011;9199;48.832;9.182;2024-02-28T10:31:12;20.70;;;11.03;;
18146;SDS011;9199;48.832;9.182;2024-02-28T10:33:41;21.52;;;12.10;;
18146;SDS011;9199;48.832;9.182;2024-02-28T10:36:08;24.25;;;12.32;;
18146;SDS011;9199;48.832;9.182;2024-02-28T10:38:36;22.92;;;12.45;;
18146;SDS011;9199;48.832;9.182;2024-02-28T10:41:03;20.95;;;11.95;;
18146;SDS011;9199;48.832;9.182;2024-02-28T10:43:32;22.97;;;11.90;;
18146;SDS011;9199;48.832;9.182;2024-02-28T10:45:59;22.38;;;11.52;;
18146;SDS011;9199;48.832;9.182;2024-02-28T10:48:27;22.23;;;11.98;;
18146;SDS011;9199;48.832;9.182;2024-02-28T10:50:54;23.88;;;12.65;;
18146;SDS011;9199;48.832;9.182;2024-02-28T10:53:21;21.60;;;12.30;;
18146;SDS011;9199;48.832;9.182;2024-02-28T10:55:51;23.60;;;13.10;;
18146;SDS011;9199;48.832;9.182;2024-02-28T10:58:24;24.63;;;12.38;;
18146;SDS011;9199;48.832;9.182;2024-02-28T11:00:55;26.00;;;12.95;;
18146;SDS011;9199;48.832;9.182;2024-02-28T11:03:22;24.83;;;12.98;;
18146;SDS011;9199;48.832;9.182;2024-02-28T11:05:48;26.25;;;13.57;;
18146;SDS011;9199;48.832;9.182;2024-02-28T11:08:20;24.27;;;12.67;;
18146;SDS011;9199;48.832;9.182;2024-02-28T11:10:53;27.73;;;14.13;;
18146;SDS011;9199;48.832;9.182;2024-02-28T11:13:21;25.10;;;13.07;;
18146;SDS011;9199;48.832;9.182;2024-02-28T11:15:47;27.00;;;13.13;;
18146;SDS011;9199;48.832;9.182;2024-02-28T11:18:15;28.08;;;13.52;;
18146;SDS011;9199;48.832;9.182;2024-02-28T11:20:42;23.57;;;12.57;;
18146;SDS011;9199;48.832;9.182;2024-02-28T11:23:11;25.88;;;12.80;;
18146;SDS011;9199;48.832;9.182;2024-02-28T11:25:39;26.52;;;13.20;;
18146;SDS011;9199;48.832;9.182;2024-02-28T11:28:06;24.33;;;12.73;;
18146;SDS011;9199;48.832;9.182;2024-02-28T11:30:33;24.08;;;12.27;;
18146;SDS011;9199;48.832;9.182;2024-02-28T11:32:59;26.57;;;13.60;;
18146;SDS011;9199;48.832;9.182;2024-02-28T11:35:27;25.27;;;13.10;;
18146;SDS011;9199;48.832;9.182;2024-02-28T11:37:54;22.33;;;12.35;;
18146;SDS011;9199;48.832;9.182;2024-02-28T11:40:22;25.35;;;13.27;;
18146;SDS011;9199;48.832;9.182;2024-02-28T11:42:50;25.40;;;13.00;;
18146;SDS011;9199;48.832;9.182;2024-02-28T11:45:16;23.27;;;12.60;;
18146;SDS011;9199;48.832;9.182;2024-02-28T11:47:44;21.73;;;12.15;;
18146;SDS011;9199;48.832;9.182;2024-02-28T11:50:10;23.60;;;12.73;;
18146;SDS011;9199;48.832;9.182;2024-02-28T11:52:39;23.52;;;12.27;;
18146;SDS011;9199;48.832;9.182;2024-02-28T11:55:06;21.08;;;11.48;;
18146;SDS011;9199;48.832;9.182;2024-02-28T11:57:33;22.17;;;12.33;;
18146;SDS011;9199;48.832;9.182;2024-02-28T12:00:02;21.45;;;11.60;;
18146;SDS011;9199;48.832;9.182;2024-02-28T12:02:30;24.92;;;12.32;;
18146;SDS011;9199;48.832;9.182;2024-02-28T12:05:00;24.42;;;12.27;;
18146;SDS011;9199;48.832;9.182;2024-02-28T12:07:27;26.08;;;12.30;;
18146;SDS011;9199;48.832;9.182;2024-02-28T12:09:55;22.90;;;11.80;;
18146;SDS011;9199;48.832;9.182;2024-02-28T12:12:21;23.40;;;11.40;;
18146;SDS011;9199;48.832;9.182;2024-02-28T12:14:48;23.23;;;12.45;;
18146;SDS011;9199;48.832;9.182;2024-02-28T12:17:15;24.48;;;12.40;;
18146;SDS011;9199;48.832;9.182;2024-02-28T12:19:42;24.40;;;12.38;;
18146;SDS011;9199;48.832;9.182;2024-02-28T12:22:09;26.40;;;12.80;;
18146;SDS011;9199;48.832;9.182;2024-02-28T12:24:36;25.08;;;12.68;;
18146;SDS011;9199;48.832;9.182;2024-02-28T12:27:04;26.48;;;12.95;;
18146;SDS011;9199;48.832;9.182;2024-02-28T12:29:31;25.52;;;12.52;;
18146;SDS011;9199;48.832;9.182;2024-02-28T12:31:57;25.45;;;12.68;;
18146;SDS011;9199;48.832;9.182;2024-02-28T12:34:24;24.47;;;12.40;;
18146;SDS011;9199;48.832;9.182;2024-02-28T12:36:51;23.80;;;12.57;;
18146;SDS011;9199;48.832;9.182;2024-02-28T12:39:19;23.55;;;12.65;;
18146;SDS011;9199;48.832;9.182;2024-02-28T12:41:45;25.35;;;13.18;;
18146;SDS011;9199;48.832;9.182;2024-02-28T12:44:14;25.23;;;13.57;;
18146;SDS011;9199;48.832;9.182;2024-02-28T12:46:41;23.33;;;12.23;;
18146;SDS011;9199;48.832;9.182;2024-02-28T12:49:08;26.65;;;12.80;;
18146;SDS011;9199;48.832;9.182;2024-02-28T12:51:36;25.30;;;13.13;;
18146;SDS011;9199;48.832;9.182;2024-02-28T12:54:04;24.48;;;12.40;;
18146;SDS011;9199;48.832;9.182;2024-02-28T12:56:31;24.27;;;12.88;;
18146;SDS011;9199;48.832;9.182;2024-02-28T12:58:58;23.60;;;12.73;;
18146;SDS011;9199;48.832;9.182;2024-02-28T13:01:26;28.80;;;13.57;;
18146;SDS011;9199;48.832;9.182;2024-02-28T13:03:54;24.02;;;12.45;;
18146;SDS011;9199;48.832;9.182;2024-02-28T13:06:20;23.73;;;12.02;;
18146;SDS011;9199;48.832;9.182;2024-02-28T13:08:47;25.23;;;12.43;;
18146;SDS011;9199;48.832;9.182;2024-02-28T13:11:17;24.67;;;12.50;;
18146;SDS011;9199;48.832;9.182;2024-02-28T13:13:44;27.67;;;12.55;;
18146;SDS011;9199;48.832;9.182;2024-02-28T13:16:11;23.42;;;12.13;;
18146;SDS011;9199;48.832;9.182;2024-02-28T13:18:39;25.40;;;12.43;;
18146;SDS011;9199;48.832;9.182;2024-02-28T13:21:06;22.67;;;12.15;;
18146;SDS011;9199;48.832;9.182;2024-02-28T13:23:32;27.03;;;11.70;;
18146;SDS011;9199;48.832;9.182;2024-02-28T13:25:59;27.48;;;12.45;;
18146;SDS011;9199;48.832;9.182;2024-02-28T13:28:26;24.38;;;12.77;;
18146;SDS011;9199;48.832;9.182;2024-02-28T13:30:55;24.67;;;12.68;;
18146;SDS011;9199;48.832;9.182;2024-02-28T13:33:22;26.10;;;13.25;;
18146;SDS011;9199;48.832;9.182;2024-02-28T13:35:50;26.37;;;13.07;;
18146;SDS011;9199;48.832;9.182;2024-02-28T13:38:18;25.30;;;12.68;;
18146;SDS011;9199;48.832;9.182;2024-02-28T13:40:45;23.73;;;12.13;;
18146;SDS011;9199;48.832;9.182;2024-02-28T13:43:12;24.50;;;13.00;;
18146;SDS011;9199;48.832;9.182;2024-02-28T13:45:39;25.25;;;12.75;;
18146;SDS011;9199;48.832;9.182;2024-02-28T13:48:14;22.40;;;11.57;;
18146;SDS011;9199;48.832;9.182;2024-02-28T13:50:42;25.13;;;12.85;;
18146;SDS011;9199;48.832;9.182;2024-02-28T13:53:10;26.40;;;12.30;;
18146;SDS011;9199;48.832;9.182;2024-02-28T13:55:38;26.52;;;13.43;;
18146;SDS011;9199;48.832;9.182;2024-02-28T13:58:04;24.42;;;12.32;;
18146;SDS011;9199;48.832;9.182;2024-02-28T14:00:31;25.30;;;12.70;;
18146;SDS011;9199;48.832;9.182;2024-02-28T14:02:59;26.35;;;12.35;;
18146;SDS011;9199;48.832;9.182;2024-02-28T14:05:26;25.15;;;12.25;;
18146;SDS011;9199;48.832;9.182;2024-02-28T14:07:53;23.20;;;11.57;;
18146;SDS011;9199;48.832;9.182;2024-02-28T14:10:21;25.52;;;13.02;;
18146;SDS011;9199;48.832;9.182;2024-02-28T14:12:47;25.13;;;12.57;;
18146;SDS011;9199;48.832;9.182;2024-02-28T14:15:14;26.02;;;12.25;;
18146;SDS011;9199;48.832;9.182;2024-02-28T14:17:41;25.55;;;12.13;;
18146;SDS011;9199;48.832;9.182;2024-02-28T14:20:09;24.55;;;13.00;;
18146;SDS011;9199;48.832;9.182;2024-02-28T14:22:36;27.75;;;12.55;;
18146;SDS011;9199;48.832;9.182;2024-02-28T14:25:06;21.80;;;11.83;;
18146;SDS011;9199;48.832;9.182;2024-02-28T14:27:35;23.05;;;11.75;;
18146;SDS011;9199;48.832;9.182;2024-02-28T14:30:02;22.15;;;11.02;;
18146;SDS011;9199;48.832;9.182;2024-02-28T14:32:32;24.05;;;12.25;;
18146;SDS011;9199;48.832;9.182;2024-02-28T14:34:59;24.15;;;12.07;;